Morley, United Kingdom
Current Conditions -  °F | °C
As of 11:50 AM on Friday 28 Nov 2014 (Local Time) from EGNM Reporting Station
Drizzle Drizzle  
Wind Chill: 45°   Ceiling: Unl
Heat Index: 48°   Visibility: 0.12mi
Dew Point: 48°   Wind: 8mph
Humidity: 100%   Direction: 80°E
Pressure: 29.71"   Gusts: NA
Location:  53.74°N, 1.6°W
Report Text: EGNM 281150Z 08007KT 040V110 0200 R32/0350 -DZ FG VV/// 09/09 Q1006
Loading
Personal Weather Stations






























Interactive Weather Map New forecast layout! Learn more

10-Day Weather Forecast

Advertisements
Track Severe Weather on mobile